• Join FlightAware (Why Join?)
  • Login
  • US Flag 
11:56AM EDT


 

Airport Tracker/Info


-or-


 

Live Flight TrackerFlight Track Log ✈ LOF3372 ✈ 05-May-2013 ✈ KIAD - KDAY

Flight Track Log - Related Links

Times and Time Zones

All times are in EDT time to prevent confusion due to time zone crossing. See the LOF3372 flight status page for this flight to view local times or setup timezone preferences in your user account.

Time Position Orientation Groundspeed Altitude Reporting Facility
EDT Latitude Longitude Course Direction KTS MPH feet Rate Location/Type
10:33PM 38.9500 -77.5000 270° West 168 193 1,300  Level Potomac TRACON
10:34PM 38.9333 -77.5667 252° West 219 252 2,900 1,740 Climbing Potomac TRACON
10:35PM 38.8772 -77.8433 260° West  Level FlightAware Approximate
10:35PM 38.9000 -77.6667 247° West 267 307 4,800  Level Potomac TRACON
10:36PM 38.8854 -77.9748 288° West  Level FlightAware Approximate
10:36PM 38.8833 -77.7500 256° West 272 313 6,700  Level Potomac TRACON
10:37PM 38.9182 -78.1058 288° West  Level FlightAware Approximate
10:37PM 38.8833 -77.8500 270° West 280 322 9,300  Level Potomac TRACON
10:38PM 38.9500 -78.2341 270° West  Level FlightAware Approximate
10:38PM 38.8839 -77.9625 270° West 322 371 10,700  Level Washington Center
10:39PM 38.9208 -78.0836 291° West 353 406 12,000 1,380 Climbing Washington Center
10:40PM 38.9539 -78.1969 291° West 363 418 13,500 1,620 Climbing Washington Center
10:41PM 38.9636 -78.3253 276° West 363 418 15,200 1,860 Climbing Washington Center
10:42PM 38.9692 -78.4511 273° West 363 418 17,300 1,800 Climbing Washington Center
10:43PM 38.9725 -78.5714 272° West 352 405 18,800 1,500 Climbing Washington Center
10:44PM 38.9756 -78.6997 272° West 352 405 20,300 1,380 Climbing Washington Center
10:45PM 38.9803 -78.8281 273° West 352 405 21,700 1,380 Climbing Washington Center
10:46PM 38.9850 -78.9592 273° West 362 417 23,100 1,440 Climbing Washington Center
10:47PM 38.9875 -79.0900 271° West 367 422 24,600 1,380 Climbing Washington Center
10:48PM 38.9919 -79.2267 272° West 377 434 25,900 1,140 Climbing Washington Center
10:49PM 39.0044 -79.3633 277° West 383 441 26,900 900 Climbing Washington Center
10:50PM 39.0167 -79.5031 276° West 390 449 27,800 540 Climbing Washington Center
10:51PM 39.0261 -79.6586 275° West 410 472 28,000 60 Climbing Washington Center
10:52PM 39.0375 -79.8114 276° West 427 491 28,000  Level Washington Center
10:53PM 39.0575 -80.0858 275° West 457 526 28,000  Level Indianapolis Center
10:54PM 39.0686 -80.2342 276° West 467 537 28,000  Level Indianapolis Center
10:55PM 39.0800 -80.4025 275° West 473 544 28,000  Level Indianapolis Center
10:56PM 39.0928 -80.5714 276° West 477 549 28,000  Level Indianapolis Center
10:57PM 39.1131 -80.7411 279° West 479 551 28,000  Level Indianapolis Center
10:58PM 39.1314 -80.9083 278° West 476 548 28,000  Level Indianapolis Center
10:59PM 39.1514 -81.0747 279° West 472 543 28,000  Level Indianapolis Center
11:00PM 39.1747 -81.2758 279° West 476 548 28,000  Level Indianapolis Center
11:01PM 39.1936 -81.4433 278° West 475 547 28,000  Level Indianapolis Center
11:02PM 39.2128 -81.6114 278° West 477 549 28,000  Level Indianapolis Center
11:03PM 39.2306 -81.7803 278° West 479 551 28,000  Level Indianapolis Center
11:04PM 39.2492 -81.9492 278° West 479 551 28,000  Level Indianapolis Center
11:05PM 39.2678 -82.1197 278° West 481 554 28,000  Level Indianapolis Center
11:06PM 39.2853 -82.2931 277° West 485 558 28,000 -120 Level Indianapolis Center
11:08PM 39.3028 -82.4633 278° West 483 556 27,800 -1,440 Descending Indianapolis Center
11:09PM 39.3217 -82.6500 278° West 481 554 25,100 -2,640 Descending Indianapolis Center
11:10PM 39.3378 -82.8147 277° West 466 536 22,500 -2,580 Descending Indianapolis Center
11:11PM 39.3536 -82.9664 278° West 431 496 20,000 -2,580 Descending Indianapolis Center
11:12PM 39.3672 -83.1150 277° West 418 481 17,400 -2,580 Descending Indianapolis Center
11:12PM 39.3719 -83.1625 277° West 411 473 16,700 -2,580 Descending Indianapolis Center
11:12PM 39.3783 -83.2172 279° West 405 466 15,700 -2,580 Descending Indianapolis Center
11:13PM 39.3819 -83.2614 276° West 408 470 14,800 -2,340 Descending Indianapolis Center
11:13PM 39.3903 -83.3456 277° West 391 450 13,600 -1,980 Descending Indianapolis Center
11:14PM 39.3953 -83.4025 277° West 393 452 12,800 -1,860 Descending Indianapolis Center
11:14PM 39.4139 -83.5103 283° West 380 437 11,400 -1,440 Descending Indianapolis Center
11:15PM 39.4864 -83.6083 314° West 375 432 10,300 -1,140 Descending Indianapolis Center
11:16PM 39.5017 -83.6269 317° Northwest 374 430 10,000 -300 Descending Indianapolis Center
11:16PM 39.5636 -83.6964 319° Northwest 372 428 10,000 -120 Level Indianapolis Center
11:17PM 39.5822 -83.7153 322° Northwest 373 429 9,900 -120 Descending Indianapolis Center
11:17PM 39.6392 -83.7764 320° Northwest 320 368 9,900 -900 Level Indianapolis Center
11:18PM 39.7028 -83.8494 319° Northwest 308 354 8,400 -1,620 Descending Indianapolis Center
11:19PM 39.7211 -83.8669 324° Northwest 308 354 7,900 -1,620 Descending Indianapolis Center
11:19PM 39.7686 -83.9203 319° Northwest 303 349 6,800 -1,680 Descending Indianapolis Center
11:20PM 39.7858 -83.9383 321° Northwest 303 349 6,200 -1,680 Descending Indianapolis Center
11:21PM 39.8481 -84.0064 320° Northwest 295 339 4,700 -1,260 Descending Indianapolis Center
11:21PM 39.8900 -84.0583 316° Northwest 279 321 4,000 -840 Descending Indianapolis Center
11:22PM 39.8969 -84.0631 332° Northwest 288 331 3,900 -1,200 Descending Indianapolis Center
11:22PM 39.9378 -84.1189 314° West 217 250 2,800 -1,140 Descending Indianapolis Center
11:23PM 39.9431 -84.1244 321° Northwest 253 291 2,800 -1,140 Level Indianapolis Center
11:23PM 39.9358 -84.1703 258° West 147 169 1,800 -1,200 Descending Indianapolis Center
11:24PM 39.9314 -84.1797 238° Southwest 187 215 1,600 -300 Descending Indianapolis Center
11:25PM 39.9064 -84.2289 236° Southwest 172 198 1,400 -240 Descending Indianapolis Center